Time;durP1;ratioP1;P1;durP2;ratioP2;P2;SDS_P1;SDS_P2;PMS_P1;PMS_P2;Temp;Humidity;BMP_temperature;BMP_pressure;BME280_temperature;BME280_humidity;BME280_pressure;Samples;Min_cycle;Max_cycle;Signal;HPM_P1;HPM_P2
2022/12/19 00:00:44;;;;;;;26.08;9.75;;;;;;;-8.37;100.00;101376.34;5018011;28;20387;-55
2022/12/19 00:03:10;;;;;;;24.15;10.02;;;;;;;-8.49;100.00;101343.28;5017989;28;20372;-55
2022/12/19 00:05:38;;;;;;;25.10;8.75;;;;;;;-8.37;100.00;101344.41;5017978;28;20050;-54
2022/12/19 00:08:05;;;;;;;22.60;9.00;;;;;;;-8.44;100.00;101340.06;5017947;28;20119;-55
2022/12/19 00:10:31;;;;;;;30.80;10.40;;;;;;;-8.70;100.00;101328.06;5018067;28;20061;-56
2022/12/19 00:12:57;;;;;;;25.02;10.10;;;;;;;-8.72;100.00;101329.28;5017810;28;20049;-56
2022/12/19 00:15:24;;;;;;;29.35;10.57;;;;;;;-8.70;100.00;101320.09;5018140;28;20050;-57
2022/12/19 00:17:50;;;;;;;28.85;9.65;;;;;;;-8.56;100.00;101327.25;5017679;28;20050;-56
2022/12/19 00:20:16;;;;;;;32.40;11.25;;;;;;;-8.56;100.00;101316.63;5018083;28;20053;-57
2022/12/19 00:22:42;;;;;;;30.17;10.00;;;;;;;-8.63;100.00;101317.53;5017787;28;20328;-59
2022/12/19 00:25:10;;;;;;;34.10;10.23;;;;;;;-8.62;100.00;101332.50;5017994;28;20101;-59
2022/12/19 00:27:36;;;;;;;31.35;10.55;;;;;;;-8.46;100.00;101340.25;5017587;28;20431;-54
2022/12/19 00:30:03;;;;;;;34.88;10.82;;;;;;;-8.42;100.00;101335.38;5017604;28;20064;-58
2022/12/19 00:32:29;;;;;;;25.40;9.52;;;;;;;-8.75;100.00;101309.22;5017705;28;20191;-59
2022/12/19 00:34:55;;;;;;;33.65;10.25;;;;;;;-8.46;100.00;101334.09;5017337;28;20407;-55
2022/12/19 00:37:21;;;;;;;30.35;9.55;;;;;;;-8.64;100.00;101297.28;5017292;28;20049;-59
2022/12/19 00:39:48;;;;;;;25.13;9.98;;;;;;;-8.61;100.00;101318.16;5017230;28;20145;-56
2022/12/19 00:42:15;;;;;;;30.48;9.95;;;;;;;-8.49;100.00;101314.03;5017694;28;20058;-57
2022/12/19 00:44:41;;;;;;;27.77;10.57;;;;;;;-8.55;100.00;101286.34;5017290;28;20054;-55
2022/12/19 00:47:07;;;;;;;28.92;9.93;;;;;;;-8.53;100.00;101264.84;5017856;28;20169;-59
2022/12/19 00:49:33;;;;;;;30.63;9.40;;;;;;;-8.70;100.00;101226.22;5017260;28;20518;-54
2022/12/19 00:52:00;;;;;;;31.17;11.05;;;;;;;-8.59;100.00;101229.22;5017808;28;20124;-59
2022/12/19 00:54:26;;;;;;;31.60;10.35;;;;;;;-8.63;100.00;101212.00;5017085;28;20068;-54
2022/12/19 00:56:52;;;;;;;25.45;10.02;;;;;;;-8.66;100.00;101195.56;5016987;28;20092;-56
2022/12/19 00:59:19;;;;;;;27.25;9.05;;;;;;;-8.69;100.00;101188.00;5017081;28;20073;-59
2022/12/19 01:01:46;;;;;;;30.17;11.73;;;;;;;-8.79;100.00;101173.19;5017367;28;20050;-56
2022/12/19 01:04:13;;;;;;;31.23;10.82;;;;;;;-9.14;100.00;101148.25;5017100;28;20140;-56
2022/12/19 01:06:40;;;;;;;26.42;10.55;;;;;;;-9.28;100.00;101160.56;5017070;28;20133;-57
2022/12/19 01:09:07;;;;;;;28.63;8.93;;;;;;;-8.99;100.00;101192.59;5017180;28;20045;-53
2022/12/19 01:14:18;;;;;;;30.60;11.45;;;;;;;-9.28;100.00;101215.50;5017361;28;20218;-56
2022/12/19 01:16:45;;;;;;;26.92;10.43;;;;;;;-9.47;100.00;101236.28;5016836;28;20049;-55
2022/12/19 01:19:11;;;;;;;31.25;12.35;;;;;;;-9.08;100.00;101272.38;5016942;28;20054;-54
2022/12/19 01:21:38;;;;;;;28.98;10.13;;;;;;;-8.96;100.00;101286.06;5016721;28;20477;-55
2022/12/19 01:24:05;;;;;;;27.77;10.45;;;;;;;-8.87;100.00;101276.13;5016592;28;20073;-56
2022/12/19 01:26:31;;;;;;;28.55;9.80;;;;;;;-8.86;100.00;101251.19;5016741;28;20382;-53
2022/12/19 01:28:57;;;;;;;24.27;9.90;;;;;;;-8.85;100.00;101232.41;5016717;28;20053;-59
2022/12/19 01:31:23;;;;;;;26.50;10.32;;;;;;;-8.86;100.00;101212.16;5016627;28;20057;-55
2022/12/19 01:33:50;;;;;;;27.85;10.40;;;;;;;-8.91;100.00;101193.28;5016503;28;20056;-58
2022/12/19 01:36:17;;;;;;;32.55;9.63;;;;;;;-8.87;100.00;101183.09;5016885;28;20374;-53
2022/12/19 01:38:43;;;;;;;34.20;9.88;;;;;;;-8.94;100.00;101160.94;5016575;28;20112;-58
2022/12/19 01:41:10;;;;;;;28.13;11.35;;;;;;;-9.04;100.00;101138.13;5016877;28;20058;-55
2022/12/19 01:43:55;;;;;;;23.30;10.25;;;;;;;-9.15;100.00;101130.66;5016508;28;20188;-53
2022/12/19 01:46:26;;;;;;;33.40;11.93;;;;;;;-9.34;100.00;101123.28;5016564;28;20058;-56
2022/12/19 01:48:53;;;;;;;24.15;9.05;;;;;;;-9.10;100.00;101160.13;5020022;28;20050;-55
2022/12/19 01:51:23;;;;;;;31.92;10.85;;;;;;;-9.20;100.00;101159.59;5022705;28;20089;-56
2022/12/19 01:53:52;;;;;;;29.30;10.73;;;;;;;-9.41;100.00;101152.41;5023288;28;20050;-56
2022/12/19 01:56:23;;;;;;;28.08;10.25;;;;;;;-9.18;100.00;101180.69;5023163;28;20050;-58
2022/12/19 01:58:52;;;;;;;36.75;10.98;;;;;;;-9.14;100.00;101181.97;5023107;28;20085;-54
2022/12/19 02:01:19;;;;;;;31.23;10.73;;;;;;;-9.16;100.00;101179.50;5022653;28;20066;-58
2022/12/19 02:03:46;;;;;;;34.67;11.13;;;;;;;-9.27;100.00;101172.81;5022862;28;20096;-55
2022/12/19 02:06:15;;;;;;;35.63;11.73;;;;;;;-9.34;100.00;101148.00;5022692;28;20107;-54
2022/12/19 02:08:46;;;;;;;27.65;9.48;;;;;;;-9.30;100.00;101173.19;5022749;28;20120;-58
2022/12/19 02:11:12;;;;;;;26.35;10.02;;;;;;;-9.52;100.00;101152.91;5022863;28;20136;-53
2022/12/19 02:13:39;;;;;;;32.10;9.75;;;;;;;-9.52;100.00;101160.88;5022584;28;20053;-58
2022/12/19 02:16:14;;;;;;;30.48;11.02;;;;;;;-9.55;100.00;101167.34;5022720;28;20060;-57
2022/12/19 02:18:48;;;;;;;35.88;9.80;;;;;;;-9.42;100.00;101176.53;5022465;28;20045;-54
2022/12/19 02:21:22;;;;;;;;;;;;;;;-9.35;100.00;101170.28;5023265;28;20111;-57
2022/12/19 02:24:15;;;;;;;30.13;10.57;;;;;;;-9.55;100.00;101155.91;5022501;28;19936;-56
2022/12/19 02:26:56;;;;;;;29.92;9.93;;;;;;;-9.49;100.00;101152.53;5022958;28;20132;-59
2022/12/19 02:29:51;;;;;;;33.47;11.40;;;;;;;-9.50;100.00;101126.97;5022998;28;20129;-53
2022/12/19 02:32:26;;;;;;;33.05;9.40;;;;;;;-9.40;100.00;101102.78;5022443;28;20111;-55
2022/12/19 02:34:57;;;;;;;32.70;11.55;;;;;;;-9.60;100.00;101060.88;5022652;28;20046;-56
2022/12/19 02:37:27;;;;;;;34.78;10.50;;;;;;;-9.47;100.00;101062.88;5022394;28;20072;-56
2022/12/19 02:39:58;;;;;;;29.00;10.82;;;;;;;-9.45;100.00;101041.44;5022818;28;20054;-59
2022/12/19 02:42:29;;;;;;;26.80;10.20;;;;;;;-9.50;100.00;101039.34;5022225;28;20433;-57
2022/12/19 02:44:58;;;;;;;33.05;11.00;;;;;;;-9.69;100.00;101008.06;5022195;28;20050;-58
2022/12/19 02:47:26;;;;;;;34.55;11.15;;;;;;;-9.60;100.00;101002.47;5022303;28;20085;-58
2022/12/19 02:49:52;;;;;;;29.25;9.75;;;;;;;-9.51;100.00;101000.53;5022271;28;20136;-52
2022/12/19 02:52:45;;;;;;;32.83;10.55;;;;;;;-9.57;100.00;100986.16;5022460;28;20057;-60
2022/12/19 02:55:14;;;;;;;27.02;10.25;;;;;;;-9.58;100.00;100989.84;5022149;28;20054;-55
2022/12/19 02:57:52;;;;;;;32.67;10.18;;;;;;;-9.49;100.00;100995.88;5022437;28;20140;-57
2022/12/19 03:00:21;;;;;;;34.75;11.23;;;;;;;-9.52;100.00;100988.28;5020119;28;20066;-59
2022/12/19 03:02:56;;;;;;;23.33;9.27;;;;;;;-9.76;100.00;100939.84;5018933;28;20145;-58
2022/12/19 03:05:26;;;;;;;27.17;10.10;;;;;;;-9.87;100.00;100907.66;5018905;28;20053;-54
2022/12/19 03:07:57;;;;;;;27.50;10.82;;;;;;;-9.79;100.00;100918.97;5018938;28;20297;-58
2022/12/19 03:10:30;;;;;;;30.33;9.75;;;;;;;-10.03;100.00;100903.38;5018756;28;20411;-54
2022/12/19 03:13:02;;;;;;;29.33;10.43;;;;;;;-10.30;100.00;100904.94;5018608;28;20054;-58
2022/12/19 03:15:28;;;;;;;37.10;11.23;;;;;;;-10.37;100.00;100926.09;5019214;28;20085;-58
2022/12/19 03:17:58;;;;;;;30.27;10.60;;;;;;;-10.26;100.00;100938.03;5018603;28;20050;-57
2022/12/19 03:20:35;;;;;;;37.03;11.40;;;;;;;-10.09;100.00;100928.84;5019047;28;20049;-60
2022/12/19 03:23:01;;;;;;;27.33;9.65;;;;;;;-9.99;100.00;100905.50;5018880;28;20061;-59
2022/12/19 03:25:30;;;;;;;25.58;9.73;;;;;;;-10.01;100.00;100877.50;5018666;28;20054;-57
2022/12/19 03:28:01;;;;;;;30.20;11.20;;;;;;;-10.01;100.00;100841.19;5018752;28;20058;-59
2022/12/19 03:30:30;;;;;;;29.10;10.82;;;;;;;-10.20;100.00;100804.66;5018217;28;20053;-55
2022/12/19 03:32:58;;;;;;;24.45;8.70;;;;;;;-10.40;100.00;100755.94;5018667;28;20057;-59
2022/12/19 03:35:28;;;;;;;25.50;9.60;;;;;;;-10.25;100.00;100785.84;5018636;28;20064;-59
2022/12/19 03:38:00;;;;;;;25.13;9.80;;;;;;;-10.09;100.00;100804.19;5018601;28;20077;-55
2022/12/19 03:40:28;;;;;;;28.58;10.23;;;;;;;-10.07;100.00;100780.09;5018281;28;20058;-56
2022/12/19 03:45:50;;;;;;;24.00;9.73;;;;;;;-10.15;100.00;100711.28;5018058;28;20404;-57
2022/12/19 03:48:24;;;;;;;24.50;9.65;;;;;;;-10.18;100.00;100688.59;5018364;28;20153;-58
2022/12/19 03:51:00;;;;;;;27.15;9.82;;;;;;;-10.12;100.00;100687.03;5017823;28;20054;-55
2022/12/19 03:53:41;;;;;;;22.67;10.27;;;;;;;-10.14;100.00;100681.09;5018117;28;20133;-60
2022/12/19 03:56:16;;;;;;;29.38;10.05;;;;;;;-10.12;100.00;100677.25;5018327;28;20054;-55
2022/12/19 03:58:47;;;;;;;24.88;8.50;;;;;;;-10.11;100.00;100667.44;5017879;28;20056;-53
2022/12/19 04:01:14;;;;;;;27.10;10.85;;;;;;;-10.15;100.00;100674.97;5017799;28;20057;-53
2022/12/19 04:03:41;;;;;;;32.40;10.27;;;;;;;-10.19;100.00;100690.44;5017898;28;20100;-55
2022/12/19 04:06:09;;;;;;;30.70;11.35;;;;;;;-10.21;100.00;100712.84;5018013;28;20081;-54
2022/12/19 04:08:36;;;;;;;23.65;9.52;;;;;;;-10.11;100.00;100729.25;5017950;28;20063;-57
2022/12/19 04:11:06;;;;;;;26.60;10.85;;;;;;;-10.06;100.00;100723.38;5017493;28;20058;-56
2022/12/19 04:13:37;;;;;;;36.08;11.35;;;;;;;-10.08;100.00;100720.13;5018056;28;20136;-58
2022/12/19 04:16:11;;;;;;;29.15;11.52;;;;;;;-10.20;100.00;100701.22;5017648;28;20331;-54
2022/12/19 04:18:40;;;;;;;30.35;10.02;;;;;;;-10.37;100.00;100687.44;5017996;28;20058;-54
2022/12/19 04:21:12;;;;;;;28.13;10.57;;;;;;;-10.25;100.00;100699.16;5017480;28;20144;-54
2022/12/19 04:23:44;;;;;;;31.13;11.32;;;;;;;-10.23;100.00;100688.34;5017337;28;20053;-55
2022/12/19 04:26:12;;;;;;;24.25;11.07;;;;;;;-10.22;100.00;100680.22;5017681;28;20123;-60
2022/12/19 04:28:45;;;;;;;26.63;9.52;;;;;;;-10.36;100.00;100646.69;5017321;28;20131;-58
2022/12/19 04:31:14;;;;;;;30.58;9.80;;;;;;;-10.33;100.00;100640.97;5017392;28;20144;-55
2022/12/19 04:33:41;;;;;;;31.38;10.20;;;;;;;-10.59;100.00;100623.06;5017248;28;20107;-58
2022/12/19 04:36:09;;;;;;;27.13;8.65;;;;;;;-10.43;100.00;100641.34;5017682;28;20136;-57
2022/12/19 04:38:35;;;;;;;34.50;10.45;;;;;;;-10.48;100.00;100629.66;5017471;28;20050;-60
2022/12/19 04:41:02;;;;;;;25.02;8.80;;;;;;;-10.49;100.00;100625.38;5017656;28;20081;-58
2022/12/19 04:43:28;;;;;;;24.92;10.23;;;;;;;-10.39;100.00;100619.72;5016879;28;20050;-54
2022/12/19 04:45:54;;;;;;;69.82;19.95;;;;;;;-10.32;100.00;100631.22;5017342;28;20046;-59
2022/12/19 04:48:20;;;;;;;46.33;16.17;;;;;;;-10.29;100.00;100638.78;5016713;28;20098;-57
2022/12/19 04:50:47;;;;;;;53.72;19.90;;;;;;;-10.35;100.00;100629.75;5016661;28;20141;-58
2022/12/19 04:53:14;;;;;;;72.00;22.17;;;;;;;-10.29;100.00;100652.06;5017271;28;20308;-54
2022/12/19 04:55:40;;;;;;;65.07;20.77;;;;;;;-10.18;100.00;100678.00;5017035;28;20050;-58
2022/12/19 04:58:07;;;;;;;51.03;16.55;;;;;;;-10.20;100.00;100687.97;5016923;28;20049;-57
2022/12/19 05:00:33;;;;;;;41.78;17.33;;;;;;;-10.36;100.00;100680.31;5016769;28;20050;-58
2022/12/19 05:02:59;;;;;;;45.10;15.98;;;;;;;-10.41;100.00;100701.28;5016920;28;20072;-54
2022/12/19 05:05:26;;;;;;;44.17;13.20;;;;;;;-10.35;100.00;100721.75;5016771;28;20375;-59
2022/12/19 05:07:52;;;;;;;35.08;10.90;;;;;;;-10.26;100.00;100761.22;5017277;28;20046;-60
2022/12/19 05:10:19;;;;;;;37.42;13.20;;;;;;;-10.33;100.00;100831.88;5016529;28;20054;-57
2022/12/19 05:12:45;;;;;;;23.40;10.10;;;;;;;-10.59;100.00;100892.56;5016990;28;20090;-55
2022/12/19 05:15:12;;;;;;;23.58;7.72;;;;;;;-10.57;100.00;100957.63;5016814;28;20108;-57
2022/12/19 05:17:38;;;;;;;20.42;8.43;;;;;;;-10.09;100.00;101048.22;5017076;28;20132;-57
2022/12/19 05:20:06;;;;;;;28.92;10.05;;;;;;;-10.48;100.00;101046.66;5016812;28;20050;-57
2022/12/19 05:22:33;;;;;;;19.60;8.50;;;;;;;-10.20;100.00;101086.63;5015985;28;20458;-55
2022/12/19 05:24:59;;;;;;;24.02;7.47;;;;;;;-10.07;100.00;101120.47;5016466;28;20111;-58
2022/12/19 05:27:26;;;;;;;38.30;7.13;;;;;;;-9.95;100.00;101169.44;5016317;28;20045;-58
2022/12/19 05:29:52;;;;;;;21.17;7.57;;;;;;;-9.89;100.00;101197.09;5016339;28;20050;-59
2022/12/19 05:32:18;;;;;;;12.82;5.43;;;;;;;-9.84;100.00;101254.94;5016171;28;20058;-56
2022/12/19 05:34:45;;;;;;;13.30;5.45;;;;;;;-9.67;100.00;101293.59;5016641;28;20049;-60
2022/12/19 05:37:11;;;;;;;18.15;5.70;;;;;;;-9.45;100.00;101333.56;5016131;28;20100;-55
2022/12/19 05:39:37;;;;;;;13.18;5.93;;;;;;;-9.45;100.00;101346.84;5016579;28;20050;-59
2022/12/19 05:42:04;;;;;;;16.63;6.45;;;;;;;-9.58;100.00;101336.84;5016103;28;20123;-57
2022/12/19 05:44:31;;;;;;;11.27;5.25;;;;;;;-9.52;100.00;101362.66;5016642;28;20068;-53
2022/12/19 05:46:57;;;;;;;13.43;5.03;;;;;;;-9.42;100.00;101373.03;5015958;28;20431;-66
2022/12/19 05:49:24;;;;;;;11.65;4.93;;;;;;;-9.38;100.00;101372.50;5016084;28;20456;-67
2022/12/19 05:51:50;;;;;;;14.57;5.78;;;;;;;-9.44;100.00;101383.84;5016084;28;20426;-59
2022/12/19 05:54:16;;;;;;;16.25;5.18;;;;;;;-9.11;100.00;101399.47;5016048;28;20503;-66
2022/12/19 05:56:42;;;;;;;14.68;5.47;;;;;;;-9.16;100.00;101396.53;5016126;28;20050;-62
2022/12/19 05:59:10;;;;;;;15.63;5.72;;;;;;;-8.94;100.00;101408.94;5016011;28;20054;-65
2022/12/19 06:01:37;;;;;;;12.10;4.70;;;;;;;-9.10;100.00;101393.97;5016404;28;20057;-64
2022/12/19 06:04:03;;;;;;;9.25;4.53;;;;;;;-8.87;100.00;101393.09;5016076;28;20395;-59
2022/12/19 06:06:29;;;;;;;17.48;5.70;;;;;;;-9.02;100.00;101385.94;5016253;28;20060;-63
2022/12/19 06:08:57;;;;;;;14.25;5.45;;;;;;;-8.91;100.00;101378.50;5015879;28;20423;-61
2022/12/19 06:11:24;;;;;;;13.10;5.18;;;;;;;-8.91;100.00;101376.69;5016106;28;20050;-65
2022/12/19 06:13:51;;;;;;;10.15;6.05;;;;;;;-9.14;100.00;101365.28;5015681;28;20087;-60
2022/12/19 06:16:20;;;;;;;10.57;4.75;;;;;;;-8.89;100.00;101380.00;5016015;28;20141;-58
2022/12/19 06:18:47;;;;;;;17.83;5.97;;;;;;;-9.11;100.00;101373.72;5015694;28;20049;-62
2022/12/19 06:21:15;;;;;;;13.82;5.45;;;;;;;-9.06;100.00;101383.84;5016376;28;20072;-65
2022/12/19 06:23:42;;;;;;;12.50;5.47;;;;;;;-9.04;100.00;101393.25;5016030;28;20093;-66
2022/12/19 06:26:10;;;;;;;15.00;6.00;;;;;;;-9.09;100.00;101390.31;5015991;28;20049;-65
2022/12/19 06:28:37;;;;;;;11.88;6.28;;;;;;;-9.24;100.00;101389.47;5015639;28;20156;-63
2022/12/19 06:31:04;;;;;;;14.27;6.05;;;;;;;-8.90;100.00;101418.19;5015867;28;20141;-63
2022/12/19 06:33:31;;;;;;;19.02;6.55;;;;;;;-8.67;100.00;101411.97;5015719;28;20073;-67
2022/12/19 06:36:00;;;;;;;19.75;6.75;;;;;;;-8.91;100.00;101371.38;5019049;28;20054;-66
2022/12/19 06:38:28;;;;;;;17.00;5.88;;;;;;;-8.84;100.00;101366.97;5018985;28;20061;-65
2022/12/19 06:43:39;;;;;;;17.13;6.93;;;;;;;-8.88;100.00;101327.66;5018868;28;20107;-65
2022/12/19 06:46:05;;;;;;;17.63;5.63;;;;;;;-8.93;100.00;101325.53;5018298;28;20060;-64
2022/12/19 06:48:31;;;;;;;15.90;6.13;;;;;;;-8.86;100.00;101329.13;5018165;28;20130;-60
2022/12/19 06:50:58;;;;;;;9.48;4.68;;;;;;;-8.64;100.00;101334.50;5018573;28;20058;-69
2022/12/19 06:53:25;;;;;;;14.70;6.22;;;;;;;-8.71;100.00;101314.97;5018763;28;20318;-62
2022/12/19 06:55:54;;;;;;;18.48;6.68;;;;;;;-8.58;100.00;101317.81;5018486;28;20140;-63
2022/12/19 06:58:20;;;;;;;21.02;6.43;;;;;;;-8.61;100.00;101289.75;5018839;28;20060;-62
2022/12/19 07:00:46;;;;;;;17.90;6.95;;;;;;;-8.54;100.00;101289.81;5018608;28;20057;-68
2022/12/19 07:03:17;;;;;;;15.90;6.25;;;;;;;-8.65;100.00;101253.91;5019068;28;20083;-69
2022/12/19 07:05:43;;;;;;;16.98;6.93;;;;;;;-8.64;100.00;101225.47;5018525;28;20107;-70
2022/12/19 07:08:10;;;;;;;15.35;6.85;;;;;;;-8.82;100.00;101194.81;5018577;28;20052;-69
2022/12/19 07:10:36;;;;;;;20.38;7.82;;;;;;;-8.40;100.00;101203.81;5018402;28;20140;-71
2022/12/19 07:13:03;;;;;;;20.27;6.82;;;;;;;-8.64;100.00;101159.00;5018811;28;20093;-69
2022/12/19 07:15:31;;;;;;;23.48;7.97;;;;;;;-8.83;100.00;101129.38;5018749;28;20064;-70
2022/12/19 07:17:58;;;;;;;21.73;8.93;;;;;;;-8.67;100.00;101120.31;5018227;28;20380;-68
2022/12/19 07:20:25;;;;;;;14.63;6.72;;;;;;;-8.49;100.00;101095.94;5018585;28;20050;-63
2022/12/19 07:22:52;;;;;;;18.17;7.82;;;;;;;-8.71;100.00;101052.56;5018230;28;20056;-62
2022/12/19 07:25:19;;;;;;;19.40;8.20;;;;;;;-8.52;100.00;101043.13;5018406;28;20428;-63
2022/12/19 07:27:46;;;;;;;23.60;10.32;;;;;;;-8.39;100.00;101016.63;5018059;28;20045;-63
2022/12/19 07:30:13;;;;;;;23.20;8.25;;;;;;;-8.57;100.00;100976.38;5018486;28;20061;-66
2022/12/19 07:32:39;;;;;;;20.52;7.38;;;;;;;-8.75;100.00;100930.88;5017859;28;20327;-64
2022/12/19 07:35:06;;;;;;;24.25;9.18;;;;;;;-8.77;100.00;100917.75;5018255;28;20085;-63
2022/12/19 07:37:33;;;;;;;20.30;7.90;;;;;;;-8.79;100.00;100933.91;5017998;28;20056;-64
2022/12/19 07:39:59;;;;;;;27.70;7.90;;;;;;;-8.34;100.00;100957.47;5017788;28;20054;-62
2022/12/19 07:42:26;;;;;;;21.70;7.55;;;;;;;-8.06;100.00;100918.31;5018112;28;20050;-64
2022/12/19 07:44:52;;;;;;;16.83;7.10;;;;;;;-8.02;100.00;100851.38;5017953;28;20045;-64
2022/12/19 07:47:19;;;;;;;38.03;9.27;;;;;;;-7.93;100.00;100803.06;5017027;28;20054;-64
2022/12/19 07:49:45;;;;;;;18.90;7.60;;;;;;;-8.03;100.00;100733.41;5018020;28;20372;-63
2022/12/19 07:52:11;;;;;;;19.63;7.93;;;;;;;-7.63;100.00;100712.09;5018175;28;20152;-65
2022/12/19 07:54:38;;;;;;;17.83;7.60;;;;;;;-7.37;100.00;100653.41;5017626;28;20395;-62
2022/12/19 07:57:04;;;;;;;13.75;6.65;;;;;;;-7.14;100.00;100580.97;5018335;28;20085;-65
2022/12/19 07:59:31;;;;;;;18.92;8.07;;;;;;;-7.17;100.00;100524.59;5017688;28;20049;-62
2022/12/19 08:01:57;;;;;;;24.10;10.50;;;;;;;-7.16;100.00;100459.63;5017343;28;20131;-65
2022/12/19 08:04:24;;;;;;;19.85;7.03;;;;;;;-6.87;100.00;100410.97;5017512;28;20111;-61
2022/12/19 08:06:50;;;;;;;11.95;5.68;;;;;;;-6.98;100.00;100354.91;5017279;28;20089;-64
2022/12/19 08:09:16;;;;;;;12.65;6.30;;;;;;;-6.58;100.00;100343.81;5017709;28;20304;-64
2022/12/19 08:11:42;;;;;;;14.65;7.25;;;;;;;-6.79;100.00;100305.88;5017536;28;20140;-65
2022/12/19 08:14:09;;;;;;;17.67;7.43;;;;;;;-6.22;100.00;100293.03;5017437;28;20057;-64
2022/12/19 08:16:36;;;;;;;15.95;6.80;;;;;;;-6.81;100.00;100267.94;5017163;28;20088;-63
2022/12/19 08:19:02;;;;;;;16.27;7.15;;;;;;;-6.60;100.00;100268.50;5017429;28;20050;-64
2022/12/19 08:21:29;;;;;;;14.98;7.10;;;;;;;-6.36;100.00;100258.75;5016999;28;20053;-66
2022/12/19 08:23:55;;;;;;;16.58;6.15;;;;;;;-6.14;100.00;100254.53;5017779;28;20064;-65
2022/12/19 08:26:24;;;;;;;17.80;6.97;;;;;;;-6.19;100.00;100252.56;5017127;28;20053;-63
2022/12/19 08:28:51;;;;;;;14.25;6.20;;;;;;;-5.13;100.00;100243.75;5000503;28;20069;-65
2022/12/19 08:31:18;;;;;;;21.25;7.47;;;;;;;-4.98;100.00;100276.16;5016963;28;20050;-64
2022/12/19 08:33:46;;;;;;;24.02;8.70;;;;;;;-5.40;100.00;100310.25;5017248;28;20065;-68
2022/12/19 08:36:14;;;;;;;16.52;7.57;;;;;;;-5.78;100.00;100352.34;5017377;28;20088;-65
2022/12/19 08:38:41;;;;;;;14.13;6.10;;;;;;;-5.71;100.00;100330.88;5016872;28;20144;-65
2022/12/19 08:41:08;;;;;;;19.10;8.27;;;;;;;-6.10;100.00;100330.44;5016894;28;20069;-67
2022/12/19 08:43:34;;;;;;;17.60;6.63;;;;;;;-6.32;100.00;100324.00;5016678;28;20407;-64
2022/12/19 08:46:00;;;;;;;32.13;9.93;;;;;;;-6.40;100.00;100303.75;5016785;28;20474;-64
2022/12/19 08:48:27;;;;;;;39.35;7.97;;;;;;;-6.31;100.00;100283.72;5016797;28;20046;-63
2022/12/19 08:50:56;;;;;;;37.50;9.45;;;;;;;-6.70;100.00;100277.84;5017100;28;20323;-65
2022/12/19 08:53:23;;;;;;;19.77;7.65;;;;;;;-6.70;100.00;100259.19;5016650;28;20067;-63
2022/12/19 08:55:54;;;;;;;16.50;7.70;;;;;;;-7.07;100.00;100260.25;5017136;28;20104;-64
2022/12/19 08:58:21;;;;;;;17.45;7.05;;;;;;;-6.77;100.00;100255.00;5016828;28;20046;-65
2022/12/19 09:00:47;;;;;;;22.08;8.15;;;;;;;-7.11;100.00;100260.69;5016928;28;20068;-62
2022/12/19 09:03:13;;;;;;;15.30;7.28;;;;;;;-6.94;100.00;100254.78;5016676;28;20415;-65
2022/12/19 09:05:40;;;;;;;15.70;7.22;;;;;;;-7.22;100.00;100249.97;5016649;28;20053;-65
2022/12/19 09:08:07;;;;;;;16.73;7.07;;;;;;;-7.16;100.00;100252.56;5016947;28;20050;-63
2022/12/19 09:10:35;;;;;;;16.98;7.55;;;;;;;-7.36;100.00;100238.66;5016967;28;20379;-65
2022/12/19 09:13:01;;;;;;;19.27;6.80;;;;;;;-7.40;100.00;100242.78;5016983;28;20054;-63
2022/12/19 09:15:29;;;;;;;21.75;7.82;;;;;;;-7.45;100.00;100240.78;5016454;28;20050;-65
2022/12/19 09:17:55;;;;;;;20.15;7.95;;;;;;;-7.17;100.00;100240.28;5016959;28;20116;-63
2022/12/19 09:20:22;;;;;;;12.38;5.65;;;;;;;-7.25;100.00;100240.56;5016380;28;20060;-62
2022/12/19 09:22:48;;;;;;;21.42;6.85;;;;;;;-7.26;100.00;100246.94;5016999;28;20045;-64
2022/12/19 09:25:15;;;;;;;16.08;7.13;;;;;;;-7.35;100.00;100253.59;5016562;28;20058;-62
2022/12/19 09:27:41;;;;;;;20.40;7.43;;;;;;;-7.00;100.00;100251.16;5016686;28;20049;-64
2022/12/19 09:30:11;;;;;;;21.52;8.57;;;;;;;-7.26;100.00;100243.44;5016333;28;20447;-64
2022/12/19 09:32:37;;;;;;;15.55;6.47;;;;;;;-6.96;100.00;100244.34;5016425;28;20158;-64
2022/12/19 09:35:05;;;;;;;12.65;5.28;;;;;;;-6.93;100.00;100240.41;5016661;28;20140;-64
2022/12/19 09:37:31;;;;;;;22.63;7.80;;;;;;;-6.99;100.00;100230.66;5016298;28;20050;-63
2022/12/19 09:39:57;;;;;;;14.93;6.38;;;;;;;-6.60;100.00;100233.84;5016447;28;20132;-65
2022/12/19 09:42:38;;;;;;;15.75;7.03;;;;;;;-6.41;100.00;100236.22;5016257;28;20423;-62
2022/12/19 09:45:17;;;;;;;15.45;6.57;;;;;;;-6.49;100.00;100244.56;5016956;28;20088;-66
2022/12/19 09:47:48;;;;;;;17.35;6.72;;;;;;;-6.71;100.00;100248.75;5016079;28;20050;-62
2022/12/19 09:50:28;;;;;;;18.50;7.40;;;;;;;-6.50;100.00;100245.59;5016396;28;20045;-63
2022/12/19 09:52:58;;;;;;;13.80;6.80;;;;;;;-5.84;100.00;100240.28;5016385;28;20108;-63
2022/12/19 09:55:30;;;;;;;14.85;6.25;;;;;;;-6.49;100.00;100252.56;5016086;28;20049;-65
2022/12/19 09:58:05;;;;;;;13.80;6.13;;;;;;;-5.88;100.00;100250.63;5016255;28;20050;-64
2022/12/19 10:00:35;;;;;;;8.23;5.22;;;;;;;-6.06;100.00;100264.91;5015970;28;20061;-64
2022/12/19 10:03:08;;;;;;;15.65;7.05;;;;;;;-5.88;100.00;100274.66;5016328;28;20061;-65
2022/12/19 10:05:40;;;;;;;14.15;6.35;;;;;;;-5.66;100.00;100296.28;5016018;28;20049;-64
2022/12/19 10:08:17;;;;;;;17.48;6.32;;;;;;;-5.66;100.00;100312.31;5015959;28;20382;-64
2022/12/19 10:10:53;;;;;;;15.73;6.65;;;;;;;-5.28;100.00;100325.25;5018286;28;20061;-64
2022/12/19 10:13:35;;;;;;;13.93;5.63;;;;;;;-5.14;100.00;100346.41;5019251;28;20360;-64
2022/12/19 10:16:08;;;;;;;16.15;7.15;;;;;;;-5.38;100.00;100345.56;5019476;28;20050;-66
2022/12/19 10:18:45;;;;;;;13.30;5.13;;;;;;;-5.85;100.00;100361.50;5019011;28;20050;-65
2022/12/19 10:21:26;;;;;;;18.50;6.72;;;;;;;-5.55;100.00;100361.47;5019504;28;20057;-63
2022/12/19 10:24:33;;;;;;;19.55;6.93;;;;;;;-5.15;100.00;100353.59;5018944;28;20557;-64
2022/12/19 10:27:04;;;;;;;18.20;7.00;;;;;;;-5.01;100.00;100379.06;4959322;29;20101;-63
2022/12/19 10:30:01;;;;;;;14.00;6.82;;;;;;;-5.01;100.00;100396.97;4959166;29;20062;-66
2022/12/19 10:32:35;;;;;;;16.08;6.35;;;;;;;-5.03;100.00;100405.25;4959269;28;20066;-64
2022/12/19 10:35:11;;;;;;;15.80;7.15;;;;;;;-4.95;100.00;100413.97;4958943;29;20321;-62
2022/12/19 10:37:42;;;;;;;21.70;7.15;;;;;;;-4.77;100.00;100443.25;4958924;29;20065;-65
2022/12/19 10:40:15;;;;;;;20.08;7.30;;;;;;;-5.05;100.00;100462.66;4958966;29;20061;-65
2022/12/19 10:42:50;;;;;;;18.13;7.57;;;;;;;-4.60;100.00;100472.81;4959001;29;20127;-66
2022/12/19 10:45:18;;;;;;;18.80;7.30;;;;;;;-4.74;100.00;100496.31;4958827;29;20381;-65
2022/12/19 10:47:46;;;;;;;15.13;7.22;;;;;;;-4.34;100.00;100493.75;4958852;29;20162;-64
2022/12/19 10:50:16;;;;;;;15.55;7.15;;;;;;;-4.25;100.00;100515.66;4958902;29;20051;-66
2022/12/19 10:52:51;;;;;;;14.15;6.05;;;;;;;-4.22;100.00;100535.78;4958899;29;20141;-64
2022/12/19 10:55:31;;;;;;;;;;;;;;;-4.56;100.00;100552.44;4959227;29;20357;-65
2022/12/19 10:57:59;;;;;;;13.98;6.47;;;;;;;-4.34;100.00;100539.28;4984885;28;19929;-66
2022/12/19 11:00:27;;;;;;;21.10;6.63;;;;;;;-3.89;100.00;100541.34;5018498;28;20065;-64
2022/12/19 11:03:11;;;;;;;17.92;7.38;;;;;;;-3.92;100.00;100560.56;5018461;28;20124;-64
2022/12/19 11:05:42;;;;;;;13.55;6.10;;;;;;;-3.89;100.00;100568.13;5018756;28;20104;-66
2022/12/19 11:08:15;;;;;;;15.80;7.03;;;;;;;-3.51;100.00;100588.22;5018348;28;20157;-65
2022/12/19 11:10:43;;;;;;;14.75;7.05;;;;;;;-3.99;100.00;100592.03;5018554;28;20386;-63
2022/12/19 11:13:22;;;;;;;22.17;8.25;;;;;;;-3.58;100.00;100588.34;5018269;28;20350;-64
2022/12/19 11:15:50;;;;;;;19.77;7.25;;;;;;;-3.65;100.00;100592.22;5018161;28;20060;-64
2022/12/19 11:18:17;;;;;;;19.65;7.63;;;;;;;-3.79;100.00;100605.06;5018592;28;20053;-65
2022/12/19 11:20:55;;;;;;;17.02;7.25;;;;;;;-3.59;100.00;100594.78;5017313;28;20061;-64
2022/12/19 11:23:23;;;;;;;15.07;7.43;;;;;;;-3.79;100.00;100605.06;5018460;28;20128;-65